메인 페이지
METAR-TAF:

METAR-TAF

공항 :

코토팍시 국제공항

Latacunga, 에콰도르

위도: 00-55S, 경도: 078-37W, 고도: 2785m

현재 날씨관측

예보는 21분 전, 13:00시(UTC)에 발표되었습니다.
7kt
온도 10°C
습도 100%
기압 1032 hPa
시정: 8000m
고도 600ft 상공 구름 보통
고도 3000ft 상공 구름 많음
고도 10000ft 상공 구름 많음
약한비

METAR: SELT 071300Z 17007KT 8000 -RA SCT006 BKN030 BKN100 10/10 Q1032

시각: 08:21 (13:21 UTC)

예보

예보는 2 시간 51분 전, 10:30시(UTC)에 발표되었습니다.
예보 대상 시간: 07일 12시부터 08일 12시까지 (UTC)
8kt
시정 10km 이상
고도 700ft 상공 구름 보통
고도 3000ft 상공 구름 많음
고도 10000ft 상공 구름 많음
전환 중
07일 16시부터 07일 18시까지 (UTC)
14kt
고도 3000ft 상공 구름 많음
고도 10000ft 상공 구름 많음
일시적
07일 19시부터 07일 22시까지 (UTC)
전환 중
08일 00시부터 08일 01시까지 (UTC)
6kt
고도 3000ft 상공 구름 보통
고도 10000ft 상공 구름 보통
전환 중
08일 05시부터 08일 06시까지 (UTC)
고도 1000ft 상공 구름 조금
고도 3000ft 상공 구름 많음

TAF: SELT 071030Z 0712/0812 17008KT 9999 SCT007 BKN030 BKN100 BECMG 0716/0718 17014KT BKN030 BKN100 TEMPO 0719/0722 RA BECMG 0800/0801 17006KT SCT030 SCT100 BECMG 0805/0806 FEW010 BKN030 TX17/0719Z TN09/0811Z

4,000개 이상의 공항 관측 자료 및 예보 (METAR 및 TAF 보고).

지도상에서 검색 가능한 기상관측소가 노란 점과 빨간 점으로 표시되어 있습니다.

기상관측소 명을 보려면 표시 위로 마우스를 이동하세요.

날씨 관측과 예보를 보려면 클릭하세요.

지도 변경 : 확대하려면 엑스 표시가 있는 녹색 버튼, 축소하려면 빼기 표시가 있는 녹색 버튼, 다음 페이지의 지도를 보려면 녹색 화살표를 클릭하세요.


METAR-TAF: